createdAt,value
2018-07-02T00:09:06.749Z,39.50
2018-07-02T00:14:00.028Z,39.80
2018-07-02T00:18:53.345Z,40.00
2018-07-02T00:23:46.630Z,40.40
2018-07-02T00:28:39.918Z,41.00
2018-07-02T00:38:26.468Z,41.70
2018-07-02T00:48:12.929Z,42.00
2018-07-02T00:53:06.220Z,42.00
2018-07-02T00:57:59.470Z,42.00
2018-07-02T01:07:45.930Z,42.40
2018-07-02T01:17:32.461Z,42.90
2018-07-02T01:22:25.800Z,43.10
2018-07-02T01:27:19.076Z,43.50
2018-07-02T01:32:12.335Z,43.80
2018-07-02T01:37:05.621Z,44.50
2018-07-02T01:41:58.929Z,44.20
2018-07-02T01:46:52.236Z,44.60
2018-07-02T01:56:38.678Z,44.70
2018-07-02T02:06:25.153Z,45.10
2018-07-02T02:11:18.500Z,45.10
2018-07-02T02:21:05.010Z,46.60
2018-07-02T02:25:58.313Z,47.20
2018-07-02T02:30:51.602Z,47.60
2018-07-02T02:35:44.957Z,47.80
2018-07-02T02:40:38.245Z,48.30
2018-07-02T02:50:24.733Z,48.70
2018-07-02T02:55:19.231Z,48.80
2018-07-02T03:00:12.559Z,48.80
2018-07-02T03:05:06.373Z,48.90
2018-07-02T03:09:59.739Z,48.50
2018-07-02T03:14:53.050Z,48.60
2018-07-02T03:19:46.316Z,48.80
2018-07-02T03:24:39.616Z,49.40
2018-07-02T03:29:32.857Z,48.90
2018-07-02T03:34:26.263Z,49.30
2018-07-02T03:39:19.562Z,49.10
2018-07-02T03:44:12.810Z,49.30
2018-07-02T03:49:06.217Z,49.80
2018-07-02T03:53:59.502Z,49.70
2018-07-02T03:58:52.873Z,50.20
2018-07-02T04:03:46.118Z,50.10
2018-07-02T04:08:39.439Z,50.00
2018-07-02T04:13:32.691Z,50.20
2018-07-02T04:18:26.010Z,50.30
2018-07-02T04:23:19.276Z,50.40
2018-07-02T04:33:05.908Z,50.50
2018-07-02T04:37:59.171Z,50.50
2018-07-02T04:42:52.587Z,50.00
2018-07-02T04:47:46.972Z,50.50
2018-07-02T05:07:18.683Z,40.20
2018-07-02T05:12:11.953Z,39.70
2018-07-02T05:21:58.747Z,38.30
2018-07-02T05:26:52.046Z,37.30
2018-07-02T05:31:45.324Z,37.80
2018-07-02T05:36:38.575Z,37.50
2018-07-02T05:41:31.962Z,36.10
2018-07-02T05:46:25.184Z,35.20
2018-07-02T05:51:18.449Z,34.40
2018-07-02T05:56:11.761Z,34.40
2018-07-02T06:01:05.007Z,34.20
2018-07-02T06:15:44.652Z,31.30
2018-07-02T06:20:37.931Z,31.20
2018-07-02T06:25:31.156Z,31.90
2018-07-02T06:30:24.430Z,33.10
2018-07-02T06:35:18.422Z,33.60
2018-07-02T06:40:11.734Z,33.20
2018-07-02T06:45:05.196Z,31.40
2018-07-02T06:54:51.611Z,29.90
2018-07-02T06:59:44.987Z,30.40
2018-07-02T07:04:38.634Z,29.60
2018-07-02T07:09:31.890Z,29.20
2018-07-02T07:14:25.175Z,28.50
2018-07-02T07:19:18.419Z,27.10
2018-07-02T07:24:11.666Z,28.30
2018-07-02T07:29:04.962Z,27.00
2018-07-02T07:33:58.202Z,26.60
2018-07-02T07:38:51.460Z,25.40
2018-07-02T07:43:44.778Z,25.80
2018-07-02T07:48:38.025Z,25.80
2018-07-02T07:53:31.250Z,26.50
2018-07-02T08:03:17.689Z,25.30
2018-07-02T08:08:11.029Z,24.60
2018-07-02T08:13:04.333Z,26.60
2018-07-02T08:17:57.578Z,25.60
2018-07-02T08:22:50.895Z,24.80
2018-07-02T08:27:44.185Z,25.30
2018-07-02T08:32:37.444Z,25.20
2018-07-02T08:37:30.728Z,24.80
2018-07-02T08:47:17.219Z,24.00
2018-07-02T08:52:10.502Z,23.90
2018-07-02T08:57:03.807Z,24.30
2018-07-02T09:01:57.073Z,24.20
2018-07-02T09:06:50.377Z,25.40
2018-07-02T09:11:43.621Z,24.70
2018-07-02T09:16:36.858Z,24.90
2018-07-02T09:21:30.151Z,24.70
2018-07-02T09:26:23.392Z,24.80
2018-07-02T09:31:16.673Z,23.20
2018-07-02T09:36:09.935Z,23.90
2018-07-02T09:41:03.207Z,24.60
2018-07-02T09:50:49.776Z,25.20
2018-07-02T09:55:43.015Z,26.20
2018-07-02T10:00:36.848Z,23.90
2018-07-02T10:05:30.132Z,25.30
2018-07-02T10:10:23.376Z,24.30
2018-07-02T10:15:16.979Z,25.10
2018-07-02T10:20:10.284Z,24.90
2018-07-02T10:25:04.209Z,25.30
2018-07-02T10:34:50.648Z,26.70
2018-07-02T10:44:37.060Z,26.30
2018-07-02T10:49:30.492Z,26.60
2018-07-02T10:54:23.787Z,27.30
2018-07-02T10:59:17.060Z,27.70
2018-07-02T11:04:10.972Z,28.00
2018-07-02T11:09:06.622Z,28.20
2018-07-02T11:13:59.877Z,28.10
2018-07-02T11:18:53.110Z,28.20
2018-07-02T11:23:46.366Z,28.30
2018-07-02T11:28:39.629Z,28.30
2018-07-02T11:33:32.870Z,28.40
2018-07-02T11:38:26.116Z,28.00
2018-07-02T11:43:19.356Z,28.50
2018-07-02T11:48:12.640Z,28.40
2018-07-02T11:57:59.207Z,27.40
2018-07-02T12:07:45.616Z,26.80
2018-07-02T12:12:38.831Z,27.20
2018-07-02T12:17:32.094Z,27.10
2018-07-02T12:27:18.536Z,27.20
2018-07-02T12:32:11.800Z,27.60
2018-07-02T12:37:05.083Z,27.20
2018-07-02T12:41:58.338Z,26.80
2018-07-02T12:46:51.670Z,26.80
2018-07-02T12:51:44.942Z,27.10
2018-07-02T12:56:38.214Z,26.80
2018-07-02T13:01:31.468Z,26.60
2018-07-02T13:11:17.964Z,26.80
2018-07-02T13:16:11.241Z,26.80
2018-07-02T13:21:04.581Z,26.20
2018-07-02T13:30:51.049Z,26.40
2018-07-02T13:35:44.276Z,26.30
2018-07-02T13:40:37.521Z,26.50
2018-07-02T13:45:31.037Z,26.50
2018-07-02T13:50:24.369Z,26.20
2018-07-02T13:55:17.706Z,26.50
2018-07-02T14:00:11.110Z,26.40
2018-07-02T14:05:04.591Z,26.10
2018-07-02T14:09:58.859Z,26.60
2018-07-02T14:19:46.380Z,26.20
2018-07-02T14:24:39.673Z,25.70
2018-07-02T14:29:33.964Z,26.00
2018-07-02T14:34:27.284Z,26.10
2018-07-02T14:44:13.756Z,26.10
2018-07-02T14:49:07.073Z,26.40
2018-07-02T14:54:00.323Z,26.00
2018-07-02T14:58:53.582Z,26.60
2018-07-02T15:03:46.823Z,26.30
2018-07-02T15:13:33.299Z,26.30
2018-07-02T15:18:26.558Z,26.00
2018-07-02T15:28:13.035Z,27.20
2018-07-02T15:33:06.292Z,27.60
2018-07-02T15:37:59.554Z,27.20
2018-07-02T15:52:39.186Z,27.30
2018-07-02T15:57:32.432Z,27.10
2018-07-02T16:02:25.715Z,26.90
2018-07-02T16:12:12.411Z,26.30
2018-07-02T16:17:05.883Z,26.90
2018-07-02T16:21:58.945Z,26.20
2018-07-02T16:26:52.205Z,26.50
2018-07-02T16:31:45.814Z,26.30
2018-07-02T16:36:39.057Z,26.30
2018-07-02T16:41:32.317Z,26.40
2018-07-02T16:56:12.001Z,26.40
2018-07-02T17:01:06.280Z,26.60
2018-07-02T17:05:59.514Z,26.50
2018-07-02T17:10:52.842Z,26.20
2018-07-02T17:15:46.153Z,26.30
2018-07-02T17:20:39.423Z,26.50
2018-07-02T17:25:32.708Z,26.50
2018-07-02T17:30:26.040Z,27.00
2018-07-02T17:35:19.300Z,27.90
2018-07-02T17:40:12.604Z,29.40
2018-07-02T17:45:06.118Z,29.80
2018-07-02T17:49:59.378Z,29.80
2018-07-02T17:54:52.702Z,30.10
2018-07-02T17:59:45.946Z,30.10
2018-07-02T18:04:39.258Z,30.20
2018-07-02T18:09:32.520Z,30.70
2018-07-02T18:14:25.846Z,31.10
2018-07-02T18:19:19.096Z,31.50
2018-07-02T18:24:12.431Z,31.70
2018-07-02T18:33:59.123Z,32.00
2018-07-02T18:38:52.434Z,32.60
2018-07-02T18:43:45.727Z,32.80
2018-07-02T18:48:39.050Z,33.00
2018-07-02T18:53:32.499Z,32.80
2018-07-02T19:03:18.965Z,33.40
2018-07-02T19:08:12.310Z,33.80
2018-07-02T19:13:06.541Z,34.10
2018-07-02T19:17:59.862Z,34.60
2018-07-02T19:22:53.219Z,35.00
2018-07-02T19:27:46.806Z,35.40
2018-07-02T19:32:40.108Z,35.60
2018-07-02T19:37:33.428Z,35.90
2018-07-02T19:42:26.725Z,35.90
2018-07-02T19:47:20.118Z,36.40
2018-07-02T19:52:13.322Z,36.60
2018-07-02T19:57:06.662Z,37.00
2018-07-02T20:01:59.977Z,37.40
2018-07-02T20:06:53.466Z,37.70
2018-07-02T20:16:39.826Z,38.70
2018-07-02T20:21:33.126Z,39.00
2018-07-02T20:26:26.433Z,39.60
2018-07-02T20:31:19.688Z,40.00
2018-07-02T20:36:12.922Z,40.50
2018-07-02T20:45:59.543Z,41.30
2018-07-02T20:50:52.818Z,41.60
2018-07-02T20:55:46.142Z,42.00
2018-07-02T21:00:39.497Z,42.40
2018-07-02T21:10:26.624Z,43.20
2018-07-02T21:15:19.902Z,43.20
2018-07-02T21:20:13.273Z,43.50
2018-07-02T21:25:06.555Z,43.80
2018-07-02T21:29:59.831Z,43.70
2018-07-02T21:34:53.097Z,43.80
2018-07-02T21:39:46.348Z,44.20
2018-07-02T21:44:39.616Z,44.70
2018-07-02T21:49:32.942Z,45.10
2018-07-02T21:54:26.195Z,45.40
2018-07-02T21:59:19.500Z,45.40
2018-07-02T22:04:12.744Z,44.40
2018-07-02T22:09:08.632Z,43.60
2018-07-02T22:14:01.969Z,43.60
2018-07-02T22:18:55.240Z,43.60
2018-07-02T22:23:48.489Z,44.30
2018-07-02T22:28:41.802Z,44.40
2018-07-02T22:33:35.063Z,44.80
2018-07-02T22:38:28.371Z,44.80
2018-07-02T22:53:08.546Z,45.20
2018-07-02T22:58:01.852Z,45.20
2018-07-02T23:02:55.142Z,46.10
2018-07-02T23:07:48.447Z,45.80
2018-07-02T23:12:41.775Z,46.20
2018-07-02T23:22:39.978Z,47.20
2018-07-02T23:27:33.277Z,48.10
2018-07-02T23:32:26.555Z,48.70
2018-07-02T23:37:19.833Z,49.00
2018-07-02T23:42:13.059Z,48.50
2018-07-02T23:47:06.373Z,49.20
2018-07-02T23:51:59.629Z,49.90
2018-07-02T23:56:52.867Z,50.70
